Time;durP1;ratioP1;P1;durP2;ratioP2;P2;SDS_P1;SDS_P2;PMS_P1;PMS_P2;Temp;Humidity;BMP_temperature;BMP_pressure;BME280_temperature;BME280_humidity;BME280_pressure;Samples;Min_cycle;Max_cycle;Signal;HPM_P1;HPM_P2
2021/12/01 00:01:45;;;;;;;0.47;0.20;;;;;;;6.27;86.59;99325.50;10259974;28;20121;-63
2021/12/01 00:06:47;;;;;;;1.38;0.28;;;;;;;6.26;85.76;99305.34;10256620;28;20964;-63
2021/12/01 00:11:48;;;;;;;0.55;0.30;;;;;;;6.29;85.49;99296.31;10253919;28;20042;-63
2021/12/01 00:16:50;;;;;;;0.68;0.20;;;;;;;6.31;86.33;99305.00;10252969;28;20121;-63
2021/12/01 00:21:52;;;;;;;0.60;0.38;;;;;;;6.26;86.83;99302.72;10255878;28;20099;-63
2021/12/01 00:26:54;;;;;;;0.40;0.25;;;;;;;6.23;87.21;99292.38;10260673;28;20047;-63
2021/12/01 00:31:55;;;;;;;0.45;0.20;;;;;;;6.22;87.67;99289.84;10265623;28;20134;-65
2021/12/01 00:36:57;;;;;;;0.50;0.30;;;;;;;6.21;88.01;99283.72;10267004;28;20067;-62
2021/12/01 00:42:00;;;;;;;0.68;0.28;;;;;;;6.11;89.51;99293.31;10272329;28;20138;-62
2021/12/01 00:52:04;;;;;;;0.55;0.35;;;;;;;6.06;92.32;99295.47;10257702;28;24421;-63
2021/12/01 00:57:05;;;;;;;2.03;0.70;;;;;;;6.01;93.23;99288.72;10256787;28;20126;-63
2021/12/01 01:02:07;;;;;;;1.13;0.88;;;;;;;5.96;93.97;99282.09;10257499;28;20067;-62
2021/12/01 01:07:09;;;;;;;1.42;0.82;;;;;;;5.90;94.54;99280.78;10262905;28;20511;-63
2021/12/01 01:17:36;;;;;;;1.50;0.93;;;;;;;5.89;94.41;99272.97;10252663;28;20074;-65
2021/12/01 01:22:39;;;;;;;1.33;0.95;;;;;;;5.90;94.46;99269.34;10256978;28;20182;-63
2021/12/01 01:27:41;;;;;;;2.15;0.93;;;;;;;5.87;94.32;99249.31;10258460;28;20161;-63
2021/12/01 01:32:42;;;;;;;1.30;0.90;;;;;;;5.94;94.30;99249.66;10255893;28;20097;-62
2021/12/01 01:37:44;;;;;;;1.33;0.65;;;;;;;5.92;93.64;99243.69;10257199;28;20071;-62
2021/12/01 01:42:48;;;;;;;0.80;0.52;;;;;;;5.94;92.63;99239.94;10258088;28;20576;-62
2021/12/01 01:48:05;;;;;;;1.58;0.50;;;;;;;5.97;92.88;99226.53;10253226;28;20129;-63
2021/12/01 01:53:15;;;;;;;1.00;0.80;;;;;;;5.95;91.50;99225.78;10215440;28;20169;-63
2021/12/01 01:58:18;;;;;;;1.02;0.80;;;;;;;5.94;91.62;99212.69;10254994;28;20059;-66
2021/12/01 02:03:21;;;;;;;1.02;0.30;;;;;;;5.94;90.32;99197.66;10254979;28;20500;-63
2021/12/01 02:08:33;;;;;;;0.70;0.25;;;;;;;5.92;90.01;99196.97;10257658;28;20134;-62
2021/12/01 02:13:35;;;;;;;1.13;0.20;;;;;;;5.91;90.12;99174.13;10263299;28;20086;-64
2021/12/01 02:18:39;;;;;;;0.60;0.28;;;;;;;5.77;89.58;99164.66;10263741;28;20047;-63
2021/12/01 02:23:43;;;;;;;0.77;0.68;;;;;;;5.80;88.90;99147.75;10265058;28;20456;-62
2021/12/01 02:28:47;;;;;;;1.15;0.70;;;;;;;5.81;88.92;99128.28;10264152;28;20126;-64
2021/12/01 02:33:48;;;;;;;0.75;0.43;;;;;;;5.73;88.99;99149.19;10264873;28;20137;-62
2021/12/01 02:38:50;;;;;;;0.55;0.40;;;;;;;5.74;88.20;99156.16;10263483;28;20448;-63
2021/12/01 02:43:52;;;;;;;0.50;0.20;;;;;;;5.71;87.80;99140.56;10259350;28;20514;-62
2021/12/01 02:48:53;;;;;;;0.20;0.10;;;;;;;5.71;87.60;99106.22;10261725;28;20050;-63
2021/12/01 02:53:55;;;;;;;0.40;0.30;;;;;;;5.72;87.18;99098.19;10262986;28;20420;-63
2021/12/01 02:58:59;;;;;;;0.73;0.40;;;;;;;5.74;87.04;99084.84;10263257;28;20083;-62
2021/12/01 03:04:01;;;;;;;0.35;0.17;;;;;;;5.71;86.46;99074.53;10263376;28;20161;-63
2021/12/01 03:09:07;;;;;;;0.47;0.10;;;;;;;5.75;86.62;99076.81;10264696;28;20077;-62
2021/12/01 03:14:11;;;;;;;0.95;0.52;;;;;;;5.72;86.72;99081.47;10262120;28;20689;-63
2021/12/01 03:19:13;;;;;;;0.70;0.60;;;;;;;5.81;86.91;99070.19;10262293;28;20298;-63
2021/12/01 03:24:14;;;;;;;1.17;0.40;;;;;;;5.78;86.91;99059.88;10255837;28;20070;-63
2021/12/01 03:29:16;;;;;;;2.38;0.80;;;;;;;5.83;86.88;99055.06;10246202;28;20143;-63
2021/12/01 03:34:21;;;;;;;3.33;0.80;;;;;;;5.84;86.91;99033.00;10259176;28;20196;-63
2021/12/01 03:39:23;;;;;;;0.80;0.60;;;;;;;5.77;87.63;99024.69;10244931;28;20551;-63
2021/12/01 03:44:25;;;;;;;1.40;1.10;;;;;;;5.77;88.14;99031.78;10257562;28;20093;-63
2021/12/01 03:49:26;;;;;;;2.17;1.30;;;;;;;5.77;88.65;99029.16;10253992;28;20134;-62
2021/12/01 03:54:28;;;;;;;3.65;1.20;;;;;;;5.73;89.26;99006.59;10263015;28;20078;-63
2021/12/01 03:59:30;;;;;;;2.67;1.50;;;;;;;5.70;90.02;98998.91;10267646;28;20486;-63
2021/12/01 04:04:32;;;;;;;2.38;2.05;;;;;;;5.69;90.31;98986.66;10265732;28;20129;-63
2021/12/01 04:09:35;;;;;;;3.20;2.03;;;;;;;5.69;90.34;98941.78;10266031;28;20508;-63
2021/12/01 04:14:37;;;;;;;2.28;1.80;;;;;;;5.63;90.16;98933.41;10268098;28;20267;-63
2021/12/01 04:19:39;;;;;;;2.15;1.70;;;;;;;5.65;90.19;98918.28;10268550;28;20054;-63
2021/12/01 04:24:40;;;;;;;2.50;2.05;;;;;;;5.62;90.26;98905.31;10301922;28;20097;-64
2021/12/01 04:29:42;;;;;;;3.35;2.10;;;;;;;5.65;89.83;98915.63;10307954;28;20058;-63
2021/12/01 04:34:43;;;;;;;2.33;1.80;;;;;;;5.69;89.44;98905.69;10300894;28;20069;-65
2021/12/01 04:39:45;;;;;;;3.30;2.20;;;;;;;5.65;89.85;98899.78;10265729;28;20122;-64
2021/12/01 04:44:46;;;;;;;2.38;1.95;;;;;;;5.76;89.14;98876.97;10265745;28;20073;-64
2021/12/01 04:49:48;;;;;;;2.80;1.92;;;;;;;5.78;88.37;98873.22;10256771;28;20082;-63
2021/12/01 04:54:49;;;;;;;2.55;2.35;;;;;;;5.71;88.26;98863.31;10266993;28;20138;-63
2021/12/01 04:59:50;;;;;;;2.05;1.80;;;;;;;5.78;88.54;98861.81;10265958;28;20136;-63
2021/12/01 05:04:52;;;;;;;3.00;2.53;;;;;;;5.81;88.02;98848.34;10256597;28;20077;-63
2021/12/01 05:09:54;;;;;;;3.40;2.53;;;;;;;5.84;88.24;98853.41;10259945;28;20416;-66
2021/12/01 05:14:55;;;;;;;3.45;2.15;;;;;;;5.86;88.32;98853.28;10261451;28;20094;-64
2021/12/01 05:19:57;;;;;;;4.20;2.13;;;;;;;5.93;87.99;98847.34;10262406;28;20094;-63
2021/12/01 05:24:58;;;;;;;2.80;2.20;;;;;;;5.96;87.91;98841.81;10263590;28;20051;-64
2021/12/01 05:30:00;;;;;;;2.03;1.67;;;;;;;6.00;87.96;98838.00;10258622;28;20700;-64
2021/12/01 05:35:02;;;;;;;2.50;1.80;;;;;;;5.99;87.57;98831.03;10263017;28;20109;-63
2021/12/01 05:40:04;;;;;;;2.25;1.60;;;;;;;6.00;87.82;98826.56;10261539;28;20051;-64
2021/12/01 05:45:06;;;;;;;2.15;1.75;;;;;;;5.98;87.16;98808.19;10263070;28;20046;-64
2021/12/01 05:50:07;;;;;;;1.52;1.33;;;;;;;6.02;86.75;98803.50;10261947;28;20105;-64
2021/12/01 05:55:10;;;;;;;2.55;1.50;;;;;;;6.01;86.88;98797.38;10259965;28;20043;-63
2021/12/01 06:00:13;;;;;;;1.67;1.48;;;;;;;6.06;87.35;98793.50;10235141;28;20076;-63
2021/12/01 06:05:15;;;;;;;1.90;1.80;;;;;;;5.98;87.62;98773.88;10260985;28;20062;-64
2021/12/01 06:10:17;;;;;;;1.58;1.23;;;;;;;6.01;87.21;98765.69;10268097;28;20065;-64
2021/12/01 06:15:18;;;;;;;2.15;1.60;;;;;;;6.07;86.78;98756.41;10282201;28;20852;-63
2021/12/01 06:20:20;;;;;;;3.03;1.65;;;;;;;6.11;86.79;98747.25;10270423;28;20129;-64
2021/12/01 06:25:22;;;;;;;2.60;1.73;;;;;;;6.18;86.16;98758.97;10266851;28;20108;-64
2021/12/01 06:30:31;;;;;;;3.72;2.35;;;;;;;6.16;85.39;98734.47;10267794;28;20057;-64
2021/12/01 06:35:34;;;;;;;3.55;2.17;;;;;;;6.13;84.87;98718.06;10270633;28;20702;-65
2021/12/01 06:40:35;;;;;;;3.22;1.67;;;;;;;6.18;84.69;98702.63;10266615;28;20074;-64
2021/12/01 06:45:37;;;;;;;3.00;2.10;;;;;;;6.19;84.50;98680.53;10270407;28;20046;-64
2021/12/01 06:50:39;;;;;;;3.60;2.00;;;;;;;6.23;84.09;98674.00;10276172;28;20054;-63
2021/12/01 06:55:40;;;;;;;2.38;1.92;;;;;;;6.24;84.09;98669.56;10272318;28;20507;-68
2021/12/01 07:00:42;;;;;;;2.53;1.73;;;;;;;6.54;85.43;98660.72;10266922;28;20195;-61
2021/12/01 07:05:44;;;;;;;2.05;1.60;;;;;;;6.45;82.36;98635.09;10254307;28;20058;-64
2021/12/01 07:10:45;;;;;;;3.13;1.75;;;;;;;6.34;83.10;98633.41;10266741;28;20133;-64
2021/12/01 07:15:47;;;;;;;3.58;1.30;;;;;;;6.41;82.84;98628.41;10273145;28;20075;-64
2021/12/01 07:20:49;;;;;;;2.15;1.40;;;;;;;6.41;82.57;98617.84;10274644;28;20050;-63
2021/12/01 07:25:50;;;;;;;2.95;1.75;;;;;;;6.37;82.35;98596.16;10266334;28;20065;-63
2021/12/01 07:30:52;;;;;;;2.15;1.27;;;;;;;6.35;82.13;98601.56;10261687;28;20053;-63
2021/12/01 07:35:53;;;;;;;1.77;1.17;;;;;;;6.44;82.30;98585.84;10268532;28;20041;-64
2021/12/01 07:40:55;;;;;;;2.95;1.60;;;;;;;6.46;81.90;98610.34;10275001;28;20057;-63
2021/12/01 07:45:56;;;;;;;2.08;1.13;;;;;;;6.43;81.29;98578.91;10277128;28;20054;-63
2021/12/01 07:50:58;;;;;;;2.50;1.10;;;;;;;6.54;81.62;98582.25;10277787;28;20053;-64
2021/12/01 07:56:02;;;;;;;0.75;0.70;;;;;;;6.60;81.04;98591.41;10279757;28;20085;-65
2021/12/01 08:01:04;;;;;;;2.10;0.80;;;;;;;6.61;81.42;98571.94;10279972;28;20086;-63
2021/12/01 08:06:06;;;;;;;2.30;0.77;;;;;;;6.72;80.56;98561.25;10275308;28;20568;-65
2021/12/01 08:11:07;;;;;;;0.98;0.70;;;;;;;6.69;80.83;98542.16;10275599;28;20428;-63
2021/12/01 08:16:09;;;;;;;1.95;0.85;;;;;;;6.69;81.10;98529.75;10274656;28;20046;-63
2021/12/01 08:21:11;;;;;;;2.33;1.02;;;;;;;6.67;81.73;98510.56;10278457;28;20463;-63
2021/12/01 08:26:12;;;;;;;2.88;1.00;;;;;;;6.64;81.81;98481.78;10261038;28;20094;-63
2021/12/01 08:31:15;;;;;;;1.02;0.63;;;;;;;6.57;82.20;98474.56;10256613;28;20507;-63
2021/12/01 08:36:17;;;;;;;1.85;0.93;;;;;;;6.67;82.41;98497.34;10251039;28;20599;-63
2021/12/01 08:41:18;;;;;;;4.35;2.90;;;;;;;6.62;83.28;98478.44;10240160;28;20547;-63
2021/12/01 08:46:20;;;;;;;2.30;0.50;;;;;;;6.65;83.18;98472.88;10253849;28;20050;-63
2021/12/01 08:51:22;;;;;;;1.55;0.80;;;;;;;6.71;83.46;98468.81;10241285;28;20046;-63
2021/12/01 08:56:23;;;;;;;1.23;0.70;;;;;;;6.71;83.68;98466.16;10268301;28;20126;-63
2021/12/01 09:01:25;;;;;;;6.85;5.10;;;;;;;6.63;84.73;98437.78;10268335;28;20050;-62
2021/12/01 09:06:27;;;;;;;8.60;0.98;;;;;;;6.54;85.47;98455.38;10270119;28;20484;-63
2021/12/01 09:11:28;;;;;;;1.10;0.90;;;;;;;6.55;85.93;98441.16;10268545;28;20109;-64
2021/12/01 09:16:30;;;;;;;1.05;0.75;;;;;;;6.52;86.92;98432.69;10267206;28;20078;-63
2021/12/01 09:21:32;;;;;;;1.50;0.90;;;;;;;6.57;87.04;98409.28;10267020;28;20046;-63
2021/12/01 09:26:34;;;;;;;1.75;0.65;;;;;;;6.50;88.17;98405.53;10265287;28;20058;-63
2021/12/01 09:31:36;;;;;;;1.10;0.57;;;;;;;6.57;88.62;98388.13;10267477;28;20079;-64
2021/12/01 09:36:38;;;;;;;4.90;2.95;;;;;;;6.61;88.26;98381.59;10265384;28;20043;-64
2021/12/01 09:41:40;;;;;;;1.95;0.77;;;;;;;6.62;87.99;98375.34;10267266;28;20105;-63
2021/12/01 09:46:42;;;;;;;1.27;0.68;;;;;;;6.69;87.94;98371.13;10264756;28;20137;-64
2021/12/01 09:51:44;;;;;;;0.90;0.63;;;;;;;6.78;87.54;98365.94;10265334;28;20058;-64
2021/12/01 09:56:45;;;;;;;1.10;0.30;;;;;;;6.83;86.89;98353.09;10265691;28;20077;-63
2021/12/01 10:01:47;;;;;;;1.23;0.40;;;;;;;6.91;86.71;98350.56;10263306;28;20059;-63
2021/12/01 10:06:49;;;;;;;1.05;0.50;;;;;;;6.88;86.66;98335.00;10265224;28;20141;-62
2021/12/01 10:11:51;;;;;;;0.65;0.30;;;;;;;6.87;86.85;98338.63;10265653;28;20051;-63
2021/12/01 10:16:54;;;;;;;1.40;0.40;;;;;;;6.95;86.70;98324.66;10263573;28;20783;-63
2021/12/01 10:21:57;;;;;;;1.00;0.40;;;;;;;6.98;86.22;98308.47;10278178;28;20565;-63
2021/12/01 10:27:02;;;;;;;1.17;0.52;;;;;;;7.03;85.66;98296.47;10252910;28;20139;-64
2021/12/01 10:32:07;;;;;;;1.30;0.30;;;;;;;7.05;85.74;98283.09;10248643;28;20114;-63
2021/12/01 10:37:22;;;;;;;2.70;0.50;;;;;;;7.01;86.82;98264.06;10236266;28;20053;-63
2021/12/01 10:42:23;;;;;;;1.35;0.40;;;;;;;7.09;86.35;98273.91;10251607;28;20090;-63
2021/12/01 10:47:25;;;;;;;0.90;0.40;;;;;;;7.14;86.56;98281.38;10246776;28;20090;-62
2021/12/01 10:52:27;;;;;;;0.68;0.25;;;;;;;7.17;87.44;98265.22;10265984;28;20553;-63
2021/12/01 10:57:28;;;;;;;1.25;0.30;;;;;;;7.15;87.10;98251.31;10251292;28;20063;-63
2021/12/01 11:02:34;;;;;;;0.85;0.40;;;;;;;7.22;87.26;98239.09;10263462;28;20377;-64
2021/12/01 11:07:36;;;;;;;1.75;1.15;;;;;;;7.25;86.66;98230.88;10292551;28;20119;-67
2021/12/01 11:12:38;;;;;;;1.77;0.98;;;;;;;7.30;86.88;98223.31;10287013;28;20109;-63
2021/12/01 11:17:56;;;;;;;1.17;0.55;;;;;;;7.32;86.54;98200.16;10255587;28;20312;-64
2021/12/01 11:23:16;;;;;;;0.70;0.30;;;;;;;7.33;86.40;98191.25;10253861;28;20555;-64
2021/12/01 11:28:21;;;;;;;0.88;0.60;;;;;;;7.34;86.33;98187.63;10248810;28;20052;-63
2021/12/01 11:33:24;;;;;;;1.40;0.22;;;;;;;7.43;86.14;98170.81;10256833;28;20054;-64
2021/12/01 11:38:26;;;;;;;1.08;0.57;;;;;;;7.51;85.88;98163.94;10259531;28;20458;-65
2021/12/01 11:43:30;;;;;;;2.33;0.90;;;;;;;7.58;85.50;98155.19;10285684;28;20079;-65
2021/12/01 11:48:36;;;;;;;0.75;0.25;;;;;;;7.61;85.09;98130.22;10272669;28;20070;-65
2021/12/01 11:53:41;;;;;;;2.13;1.00;;;;;;;7.73;84.99;98113.09;10287151;28;20070;-64
2021/12/01 11:58:56;;;;;;;2.50;0.40;;;;;;;7.79;84.16;98109.81;10292434;28;20047;-65
2021/12/01 12:04:00;;;;;;;1.15;0.22;;;;;;;7.95;83.37;98100.25;10297783;28;20143;-68
2021/12/01 12:09:08;;;;;;;0.30;0.00;;;;;;;8.06;81.91;98084.09;10299914;28;20059;-64
2021/12/01 12:14:14;;;;;;;0.20;0.00;;;;;;;8.11;81.54;98084.44;10295722;28;20055;-66
2021/12/01 12:19:33;;;;;;;0.77;0.20;;;;;;;8.19;81.35;98075.66;10309886;28;20042;-65
2021/12/01 12:24:50;;;;;;;0.85;0.15;;;;;;;8.18;81.62;98075.81;10299035;28;20058;-66
2021/12/01 12:29:52;;;;;;;0.25;0.10;;;;;;;8.19;82.04;98065.06;10300855;28;20401;-66
2021/12/01 12:34:56;;;;;;;2.42;0.57;;;;;;;8.18;81.94;98079.31;10280078;28;20307;-66
2021/12/01 12:39:59;;;;;;;0.82;0.10;;;;;;;8.21;82.02;98049.84;10266829;28;20508;-64
2021/12/01 12:45:00;;;;;;;1.10;0.03;;;;;;;8.24;82.30;98036.28;10269193;28;20077;-63
2021/12/01 12:50:14;;;;;;;0.20;0.10;;;;;;;8.29;81.87;98020.69;10274037;28;20074;-64
2021/12/01 12:55:21;;;;;;;0.70;0.30;;;;;;;8.26;82.27;98013.06;10268534;28;20050;-63
2021/12/01 13:00:28;;;;;;;1.08;0.40;;;;;;;8.25;82.39;98002.63;10260380;28;20519;-64
2021/12/01 13:05:34;;;;;;;0.70;0.20;;;;;;;8.29;82.66;97985.41;10264517;28;20122;-64
2021/12/01 13:10:39;;;;;;;1.50;0.30;;;;;;;8.32;82.23;97985.09;10258292;28;20072;-63
2021/12/01 13:15:46;;;;;;;0.75;0.20;;;;;;;8.31;82.08;97973.63;10259538;28;20126;-64
2021/12/01 13:20:51;;;;;;;0.40;0.20;;;;;;;8.34;82.11;97955.75;10216778;28;20055;-64
2021/12/01 13:25:57;;;;;;;0.50;0.20;;;;;;;8.36;82.02;97948.47;10236041;28;20489;-63
2021/12/01 13:31:08;;;;;;;0.45;0.10;;;;;;;8.37;81.63;97940.34;10210602;28;20545;-66
2021/12/01 13:36:17;;;;;;;0.30;0.00;;;;;;;8.37;81.79;97944.81;10226278;28;20053;-64
2021/12/01 13:41:18;;;;;;;1.40;0.20;;;;;;;8.36;81.37;97945.81;10235662;28;20121;-64
2021/12/01 13:46:20;;;;;;;0.82;0.30;;;;;;;8.39;81.40;97943.66;10232578;28;20043;-65
2021/12/01 13:51:23;;;;;;;1.48;0.10;;;;;;;8.39;81.64;97951.63;10231725;28;20419;-66
2021/12/01 13:56:28;;;;;;;0.65;0.30;;;;;;;8.43;81.06;97944.16;10231305;28;20047;-65
2021/12/01 14:01:30;;;;;;;1.30;0.40;;;;;;;8.39;81.35;97933.06;10226534;28;20375;-64
2021/12/01 14:06:35;;;;;;;0.20;0.20;;;;;;;8.36;80.91;97928.09;10218515;28;20079;-65
2021/12/01 14:11:45;;;;;;;2.80;0.40;;;;;;;8.37;81.10;97919.13;10221998;28;20121;-65
2021/12/01 14:16:53;;;;;;;0.57;0.55;;;;;;;8.41;80.91;97931.06;10219514;28;20146;-64
2021/12/01 14:21:56;;;;;;;1.02;0.60;;;;;;;8.41;80.63;97925.78;10262018;28;20404;-65
2021/12/01 14:27:03;;;;;;;1.45;0.40;;;;;;;8.45;80.05;97924.47;10262246;28;20137;-64
2021/12/01 14:32:08;;;;;;;0.60;0.40;;;;;;;8.48;79.72;97907.38;10257500;28;20070;-65
2021/12/01 14:37:12;;;;;;;0.73;0.40;;;;;;;8.49;79.80;97901.09;10270775;28;20670;-64
2021/12/01 14:42:14;;;;;;;0.30;0.20;;;;;;;8.46;79.37;97894.28;10283208;28;20120;-64
2021/12/01 14:47:20;;;;;;;1.05;0.50;;;;;;;8.52;79.61;97899.94;10262730;28;20074;-67
2021/12/01 14:52:24;;;;;;;0.40;0.20;;;;;;;8.51;78.77;97903.56;10263776;28;20182;-65
2021/12/01 14:57:28;;;;;;;0.82;0.28;;;;;;;8.45;80.60;97899.78;10281165;28;20084;-65
2021/12/01 15:02:35;;;;;;;0.63;0.20;;;;;;;8.37;82.14;97897.94;10239804;28;20058;-65
2021/12/01 15:07:46;;;;;;;0.93;0.40;;;;;;;8.34;82.69;97902.75;10287845;28;20085;-66
2021/12/01 15:13:05;;;;;;;1.15;0.20;;;;;;;8.30;82.78;97926.09;10282208;28;20066;-65
2021/12/01 15:18:09;;;;;;;0.52;0.30;;;;;;;8.29;83.65;97917.31;10279120;28;20050;-64
2021/12/01 15:23:11;;;;;;;0.45;0.20;;;;;;;8.21;83.79;97913.84;10281297;28;20054;-64
2021/12/01 15:28:13;;;;;;;0.35;0.10;;;;;;;8.21;84.21;97921.78;10270152;28;20128;-65
2021/12/01 15:33:17;;;;;;;0.55;0.20;;;;;;;8.18;85.38;97925.63;10275740;28;20178;-65
2021/12/01 15:38:20;;;;;;;0.38;0.15;;;;;;;8.13;86.70;97922.63;10275495;28;20051;-65
2021/12/01 15:43:22;;;;;;;1.67;0.50;;;;;;;8.06;87.07;97919.81;10280925;28;20055;-65
2021/12/01 15:48:24;;;;;;;0.60;0.60;;;;;;;8.02;87.43;97942.31;10276593;28;20046;-66
2021/12/01 15:53:25;;;;;;;1.88;0.30;;;;;;;8.01;87.39;97937.19;10276754;28;21704;-65
2021/12/01 15:58:27;;;;;;;0.70;0.30;;;;;;;8.01;87.92;97940.66;10291936;28;20046;-65
2021/12/01 16:03:29;;;;;;;0.65;0.30;;;;;;;8.06;87.63;97954.25;10296383;28;20081;-65
2021/12/01 16:08:30;;;;;;;1.08;0.30;;;;;;;8.09;87.29;97961.88;10288152;28;20047;-65
2021/12/01 16:13:32;;;;;;;2.53;0.30;;;;;;;8.05;87.01;97957.88;10307535;28;20072;-65
2021/12/01 16:18:34;;;;;;;1.35;0.30;;;;;;;8.11;86.50;97962.53;10292178;28;20046;-64
2021/12/01 16:23:36;;;;;;;0.70;0.20;;;;;;;8.14;86.89;97978.09;10278159;28;20488;-65
2021/12/01 16:28:38;;;;;;;0.82;0.43;;;;;;;8.09;87.03;97985.72;10274096;28;20567;-65
2021/12/01 16:33:40;;;;;;;1.15;1.05;;;;;;;8.11;86.72;97996.97;10261429;28;20055;-64
2021/12/01 16:38:43;;;;;;;1.13;0.55;;;;;;;8.11;86.72;97996.97;10262317;28;20693;-64
2021/12/01 16:43:46;;;;;;;0.73;0.40;;;;;;;8.07;87.15;98014.19;10254610;28;20133;-64
2021/12/01 16:48:49;;;;;;;1.02;0.50;;;;;;;8.09;88.68;98011.38;10270613;28;20345;-64
2021/12/01 16:53:51;;;;;;;1.52;0.60;;;;;;;8.19;89.06;98021.84;10260274;28;20191;-66
2021/12/01 16:58:52;;;;;;;0.75;0.30;;;;;;;8.02;90.13;98026.28;10267324;28;21534;-63
2021/12/01 17:04:05;;;;;;;0.77;0.35;;;;;;;7.90;89.91;98036.34;10217739;28;20549;-64
2021/12/01 17:09:07;;;;;;;1.67;0.90;;;;;;;7.87;90.51;98031.38;10253056;28;20105;-69
2021/12/01 17:14:08;;;;;;;1.60;1.10;;;;;;;7.94;89.35;98037.66;10268134;28;20061;-65
2021/12/01 17:19:09;;;;;;;1.15;0.55;;;;;;;8.00;88.03;98044.13;10217830;28;20150;-67
2021/12/01 17:24:11;;;;;;;1.25;1.10;;;;;;;7.93;87.06;98049.28;10235257;28;20058;-63
2021/12/01 17:29:13;;;;;;;2.47;1.08;;;;;;;7.88;86.75;98051.56;10271234;28;20062;-64
2021/12/01 17:34:14;;;;;;;1.80;1.25;;;;;;;7.84;86.45;98050.25;10278104;28;20082;-64
2021/12/01 17:39:16;;;;;;;2.63;1.25;;;;;;;7.86;85.86;98053.53;10280007;28;20132;-64
2021/12/01 17:44:17;;;;;;;2.28;1.00;;;;;;;7.83;84.70;98051.22;10276861;28;20050;-64
2021/12/01 17:49:22;;;;;;;3.47;1.08;;;;;;;7.74;84.29;98055.66;10274708;28;20050;-64
2021/12/01 17:54:24;;;;;;;2.23;0.80;;;;;;;7.67;84.42;98055.47;10308612;28;20038;-64
2021/12/01 17:59:26;;;;;;;2.50;0.90;;;;;;;7.62;83.97;98060.38;10309539;28;20117;-64
2021/12/01 18:04:27;;;;;;;1.75;0.80;;;;;;;7.62;84.00;98065.69;10307480;28;20046;-64
2021/12/01 18:09:28;;;;;;;2.00;1.10;;;;;;;7.54;83.60;98063.00;10273599;28;20050;-63
2021/12/01 18:14:31;;;;;;;1.42;0.73;;;;;;;7.53;83.41;98069.28;10277547;28;20068;-63
2021/12/01 18:19:33;;;;;;;2.30;1.10;;;;;;;7.48;83.80;98071.59;10276691;28;20054;-64
2021/12/01 18:24:34;;;;;;;1.83;0.70;;;;;;;7.52;82.88;98078.19;10276980;28;20483;-64
2021/12/01 18:29:36;;;;;;;1.17;0.50;;;;;;;7.46;81.99;98082.34;10275961;28;20145;-65
2021/12/01 18:34:37;;;;;;;1.25;0.60;;;;;;;7.43;80.76;98086.13;10278168;28;20101;-63
2021/12/01 18:39:39;;;;;;;1.52;0.60;;;;;;;7.44;80.56;98089.59;10274398;28;20425;-63
2021/12/01 18:44:41;;;;;;;1.52;0.50;;;;;;;7.50;80.44;98104.00;10277097;28;20169;-65
2021/12/01 18:49:42;;;;;;;1.33;0.47;;;;;;;7.42;79.97;98092.38;10275570;28;20046;-64
2021/12/01 18:54:44;;;;;;;2.78;0.90;;;;;;;7.40;80.12;98104.97;10270877;28;20106;-63
2021/12/01 19:00:09;;;;;;;2.13;0.95;;;;;;;7.33;80.19;98108.38;10276531;28;20692;-64
2021/12/01 19:05:12;;;;;;;2.15;0.90;;;;;;;7.35;79.82;98109.88;10224305;28;20051;-67
2021/12/01 19:10:22;;;;;;;1.52;0.95;;;;;;;7.32;80.05;98115.47;10270021;28;20105;-65
2021/12/01 19:15:24;;;;;;;1.58;0.60;;;;;;;7.26;80.25;98134.63;10274848;28;20551;-65
2021/12/01 19:20:25;;;;;;;1.58;0.90;;;;;;;7.27;80.46;98144.22;10280607;28;20050;-65
2021/12/01 19:25:27;;;;;;;1.90;1.05;;;;;;;7.29;79.67;98152.00;10269139;28;20141;-64
2021/12/01 19:30:28;;;;;;;2.05;1.40;;;;;;;7.33;79.43;98162.13;10274565;28;20133;-63
2021/12/01 19:35:32;;;;;;;1.35;0.70;;;;;;;7.42;79.24;98170.97;10272998;28;20124;-64
2021/12/01 19:40:34;;;;;;;2.33;1.43;;;;;;;7.44;79.42;98190.16;10220048;28;20086;-64
2021/12/01 19:45:35;;;;;;;4.03;1.50;;;;;;;7.44;79.30;98198.94;10215067;28;20356;-64
2021/12/01 19:50:38;;;;;;;2.70;1.17;;;;;;;7.50;79.96;98202.78;10254428;28;20050;-66
2021/12/01 19:55:40;;;;;;;1.98;1.27;;;;;;;7.45;80.46;98205.06;10271392;28;20069;-65
2021/12/01 20:00:41;;;;;;;2.47;1.00;;;;;;;7.41;80.35;98212.47;10270866;28;20066;-65
2021/12/01 20:05:43;;;;;;;2.75;1.70;;;;;;;7.40;81.00;98221.41;10258731;28;20050;-64
2021/12/01 20:10:45;;;;;;;3.92;3.30;;;;;;;7.31;80.42;98225.00;10254914;28;20137;-66
2021/12/01 20:15:47;;;;;;;3.95;1.35;;;;;;;7.25;80.11;98225.56;10273626;28;20086;-64
2021/12/01 20:20:48;;;;;;;2.22;2.03;;;;;;;7.30;79.76;98235.72;10273872;28;20401;-64
2021/12/01 20:25:50;;;;;;;6.95;6.22;;;;;;;7.17;79.61;98238.75;10279671;28;20409;-65
2021/12/01 20:30:52;;;;;;;2.17;1.20;;;;;;;7.11;79.91;98237.53;10306709;28;20082;-66
2021/12/01 20:35:56;;;;;;;3.35;1.85;;;;;;;7.13;79.40;98242.66;10273579;28;20568;-65
2021/12/01 20:41:06;;;;;;;2.53;1.40;;;;;;;7.07;79.22;98238.81;10280758;28;20700;-65
2021/12/01 20:56:44;;;;;;;3.70;2.33;;;;;;;7.04;81.03;98250.53;10269051;28;20101;-65
2021/12/01 21:01:46;;;;;;;2.72;2.10;;;;;;;6.96;81.61;98260.19;10227852;28;20088;-65
2021/12/01 21:06:48;;;;;;;2.38;1.75;;;;;;;6.91;81.44;98260.66;10221509;28;20063;-65
2021/12/01 21:11:52;;;;;;;2.10;1.30;;;;;;;6.81;80.63;98270.44;10279042;28;20247;-66
2021/12/01 21:16:56;;;;;;;2.33;1.55;;;;;;;6.86;80.86;98268.19;10278844;28;20137;-66
2021/12/01 21:22:01;;;;;;;2.55;2.13;;;;;;;7.02;80.17;98283.41;10275352;28;20134;-65
2021/12/01 21:27:06;;;;;;;5.18;1.70;;;;;;;7.07;79.30;98281.13;10271862;28;20141;-66
2021/12/01 21:32:11;;;;;;;2.78;1.45;;;;;;;7.16;78.41;98287.34;10269920;28;20114;-65
2021/12/01 21:37:13;;;;;;;2.47;1.48;;;;;;;7.22;78.24;98278.81;10296945;28;20112;-66
2021/12/01 21:42:15;;;;;;;4.20;1.98;;;;;;;7.18;77.78;98283.56;10306258;28;20058;-65
2021/12/01 21:47:17;;;;;;;3.45;1.73;;;;;;;7.22;77.20;98284.09;10308311;28;20055;-66
2021/12/01 21:52:22;;;;;;;3.45;1.40;;;;;;;7.24;77.38;98292.75;10311618;28;20061;-65
2021/12/01 21:57:23;;;;;;;1.80;1.02;;;;;;;7.24;76.48;98303.31;10289770;28;20053;-67
2021/12/01 22:02:28;;;;;;;2.55;1.67;;;;;;;7.14;76.07;98302.56;10315247;28;20058;-65
2021/12/01 22:07:29;;;;;;;1.83;1.05;;;;;;;7.04;76.19;98314.03;10312074;28;20046;-66
2021/12/01 22:12:31;;;;;;;1.95;1.08;;;;;;;6.98;75.59;98322.56;10315014;28;20054;-65
2021/12/01 22:17:33;;;;;;;2.53;1.25;;;;;;;7.03;75.99;98322.13;10310213;28;20222;-64
2021/12/01 22:22:39;;;;;;;3.67;1.00;;;;;;;7.11;75.34;98319.53;10257559;28;20113;-64
2021/12/01 22:27:42;;;;;;;3.70;1.48;;;;;;;7.21;75.88;98335.38;10273627;28;20038;-65
2021/12/01 22:32:44;;;;;;;4.70;1.85;;;;;;;7.28;74.93;98325.00;10264023;28;20488;-64
2021/12/01 22:37:49;;;;;;;3.08;1.33;;;;;;;7.37;75.05;98330.25;10271051;28;20058;-64
2021/12/01 22:42:52;;;;;;;3.15;1.80;;;;;;;7.32;75.13;98327.22;10296469;28;20074;-65
2021/12/01 22:47:55;;;;;;;3.90;1.65;;;;;;;7.35;74.57;98337.50;10316346;28;20073;-65
2021/12/01 22:52:56;;;;;;;3.90;1.63;;;;;;;7.37;74.62;98346.13;10275092;28;20046;-66
2021/12/01 22:57:59;;;;;;;3.50;1.42;;;;;;;7.38;74.79;98344.31;10307662;28;20082;-64
2021/12/01 23:03:17;;;;;;;5.55;1.42;;;;;;;7.33;74.34;98349.25;10311050;28;20043;-63
2021/12/01 23:08:22;;;;;;;2.65;1.48;;;;;;;7.25;75.77;98348.16;10310334;28;20069;-64
2021/12/01 23:13:25;;;;;;;2.75;1.38;;;;;;;7.25;75.93;98347.31;10317051;28;20050;-65
2021/12/01 23:18:27;;;;;;;4.03;1.63;;;;;;;7.22;76.34;98348.47;10320042;28;20130;-66
2021/12/01 23:28:37;;;;;;;2.75;1.35;;;;;;;7.16;77.45;98362.28;10307806;28;20038;-66
2021/12/01 23:33:50;;;;;;;3.95;1.63;;;;;;;7.22;79.41;98351.09;10298294;28;20046;-65
2021/12/01 23:38:53;;;;;;;3.50;1.58;;;;;;;7.20;78.61;98360.16;10286676;28;20381;-64
2021/12/01 23:43:54;;;;;;;1.98;1.00;;;;;;;7.18;78.93;98359.50;10269017;28;20069;-64
2021/12/01 23:54:15;;;;;;;3.40;0.95;;;;;;;7.16;77.51;98354.34;10260898;28;20050;-64
2021/12/01 23:59:16;;;;;;;2.97;0.90;;;;;;;7.20;77.67;98370.75;10267487;28;20133;-64
